Weather reports worldwide

Advertisment
Huercal Overa, Spain (8428): temperature & dewpoint: 16.06.2018 15:00:00 - 22.06.2018 15:00:00 (CEST)Huercal Overa, Spain (8428): wind speed & gusts: 16.06.2018 15:00:00 - 22.06.2018 15:00:00 (CEST)Huercal Overa, Spain (8428): wind direction: 16.06.2018 15:00:00 - 22.06.2018 15:00:00 (CEST)Huercal Overa, Spain (8428): reduced air pressure: 16.06.2018 15:00:00 - 22.06.2018 15:00:00 (CEST)Huercal Overa, Spain (8428): precipitation: 16.06.2018 15:00:00 - 22.06.2018 15:00:00 (CEST)
Date & Time tt [°C] td [°C] ff [km/h] ff [kn] fx [km/h] fx [kn] dd ppp [hPa] rr [mm]
22.06.2018 15:00:00 - - - - - - - - -
22.06.2018 14:00:00 30,3 7,4 10 5 24 13 S 1015,3 -
22.06.2018 13:00:00 29,8 7,0 10 5 22 12 SSW 1015,5 0,0
22.06.2018 12:00:00 30,2 8,0 8 4 22 12 E 1016,0 0,0
22.06.2018 11:00:00 28,7 7,8 8 4 19 11 ESE 1016,2 0,0
22.06.2018 10:00:00 27,5 8,4 1 1 - - SE 1016,0 -
22.06.2018 09:00:00 - - 0 0 - - SW - -
22.06.2018 08:00:00 20,9 8,5 1 1 4 2 ESE 1016,9 -
22.06.2018 07:00:00 18,5 8,4 1 1 6 3 NNW 1017,9 0,0
22.06.2018 06:00:00 18,3 8,8 1 1 6 3 ENE 1017,4 0,0
22.06.2018 05:00:00 18,8 8,4 1 0 4 2 W 1017,3 0,0
22.06.2018 04:00:00 19,5 8,8 0 0 5 3 E 1017,4 0,0
22.06.2018 03:00:00 20,3 8,9 1 0 5 3 ESE 1017,7 0,0
22.06.2018 02:00:00 21,3 9,2 3 2 6 3 WNW 1017,8 -
22.06.2018 01:00:00 22,0 9,6 3 2 5 3 W 1017,9 0,0
22.06.2018 00:00:00 22,4 8,9 4 2 7 4 WSW 1017,7 0,0
21.06.2018 23:00:00 23,2 8,8 4 2 12 7 SW 1017,4 0,0
21.06.2018 22:00:00 24,1 8,5 8 5 16 9 SW 1016,3 0,0
21.06.2018 21:00:00 25,9 8,8 7 4 16 8 E 1015,8 0,0
21.06.2018 20:00:00 28,0 8,8 6 3 20 11 ESE 1015,3 -
21.06.2018 19:00:00 27,6 7,4 10 5 24 13 E 1015,2 0,0
21.06.2018 18:00:00 29,8 8,3 5 3 23 12 SE 1015,4 0,0
21.06.2018 17:00:00 28,8 6,2 8 4 29 16 ESE 1015,6 0,0
21.06.2018 16:00:00 29,1 9,3 9 5 26 14 SE 1015,7 0,0
21.06.2018 15:00:00 29,8 7,7 7 4 27 14 SE 1015,4 0,0
21.06.2018 14:00:00 29,4 11,4 13 7 31 17 S 1015,7 -
21.06.2018 13:00:00 31,3 8,9 5 3 26 14 ESE 1015,6 0,0
21.06.2018 12:00:00 28,8 8,0 9 5 23 12 SE 1016,6 0,0
21.06.2018 11:00:00 27,0 8,0 9 5 21 11 ESE 1016,5 0,0
21.06.2018 10:00:00 26,0 9,3 2 1 10 5 E 1017,0 0,0
21.06.2018 09:00:00 24,0 10,3 1 1 6 3 S 1017,0 0,0
21.06.2018 08:00:00 20,5 9,4 1 1 7 4 W 1017,5 -
21.06.2018 07:00:00 18,1 9,2 3 1 6 3 NW 1017,9 0,0
21.06.2018 06:00:00 18,7 9,2 4 2 7 4 NNE 1017,8 0,0
21.06.2018 05:00:00 18,7 9,2 4 2 13 7 ENE 1017,7 0,0
21.06.2018 04:00:00 20,4 9,9 2 1 10 5 ENE 1017,3 0,0
21.06.2018 03:00:00 20,7 9,6 1 1 15 8 N 1017,6 0,0
21.06.2018 02:00:00 21,9 9,8 6 4 16 9 E 1017,6 -
21.06.2018 01:00:00 21,1 11,1 1 1 7 4 NNW 1018,1 0,0
21.06.2018 00:00:00 21,7 11,7 1 1 5 3 ENE 1018,2 0,0
20.06.2018 23:00:00 21,9 11,6 3 1 8 4 SSW 1018,2 0,0
20.06.2018 22:00:00 22,6 10,4 6 3 10 5 SW 1017,5 0,0
20.06.2018 21:00:00 24,4 9,9 6 3 14 8 SSW 1016,9 0,0
20.06.2018 20:00:00 26,3 10,0 4 2 19 10 S 1016,0 -
20.06.2018 19:00:00 25,8 10,0 14 7 26 14 SSW 1016,0 0,0
20.06.2018 18:00:00 27,0 10,6 10 6 41 22 SSW 1015,9 0,0
20.06.2018 17:00:00 26,5 9,8 12 7 30 16 S 1016,1 0,0
20.06.2018 16:00:00 28,0 10,2 8 4 24 13 SSE 1015,4 0,0
20.06.2018 15:00:00 28,2 8,9 7 4 26 14 S 1016,4 0,0
20.06.2018 14:00:00 29,2 8,3 8 4 21 12 E 1017,1 -
20.06.2018 13:00:00 27,2 8,1 8 5 23 12 E 1017,8 0,0
20.06.2018 12:00:00 26,5 7,6 8 4 19 10 E 1018,3 0,0
20.06.2018 11:00:00 25,6 8,5 4 2 16 9 ESE 1018,2 0,0
20.06.2018 10:00:00 24,6 8,9 5 3 11 6 E 1018,7 0,0
20.06.2018 09:00:00 23,9 8,7 0 0 7 4 SSW 1018,6 0,0
20.06.2018 08:00:00 20,3 8,9 1 1 5 3 WSW 1019,0 -
20.06.2018 07:00:00 17,4 8,8 1 1 4 2 WNW 1019,7 0,0
20.06.2018 06:00:00 17,7 8,5 1 1 - - WNW 1019,3 -
20.06.2018 05:00:00 17,9 9,0 4 2 5 3 WNW 1019,7 0,0
20.06.2018 04:00:00 18,4 9,2 2 1 5 3 WNW 1020,0 0,0
20.06.2018 03:00:00 18,9 9,0 1 0 4 2 WNW 1020,2 0,0
20.06.2018 02:00:00 19,5 9,0 1 1 5 3 ENE 1020,5 -
20.06.2018 01:00:00 20,3 9,2 2 1 6 3 N 1020,7 0,0
20.06.2018 00:00:00 20,8 8,8 3 1 5 3 WNW 1020,7 0,0
19.06.2018 23:00:00 21,1 8,7 3 2 9 5 WSW 1020,6 0,0
19.06.2018 22:00:00 22,1 8,9 6 3 12 7 ESE 1019,9 0,0
19.06.2018 21:00:00 22,9 9,7 5 3 20 11 ESE 1019,5 0,0
19.06.2018 20:00:00 24,5 10,8 9 5 24 13 ESE 1019,0 -
19.06.2018 19:00:00 25,8 10,0 6 4 18 10 ESE 1018,6 0,0
19.06.2018 18:00:00 26,9 10,2 3 2 19 10 SSE 1018,7 0,0
19.06.2018 17:00:00 26,4 9,7 8 4 24 13 ESE 1019,1 0,0
19.06.2018 16:00:00 26,5 8,9 6 4 29 15 ESE 1019,2 0,0
19.06.2018 15:00:00 25,7 8,7 12 7 32 17 SSW 1020,0 0,0
19.06.2018 14:00:00 27,2 9,6 8 5 24 13 ESE 1019,9 -
19.06.2018 13:00:00 26,2 8,7 8 5 26 14 ESE 1020,5 0,0
19.06.2018 12:00:00 25,2 7,8 9 5 25 13 ESE 1020,9 0,0
19.06.2018 11:00:00 25,7 7,7 7 4 19 10 E 1020,7 0,0
19.06.2018 10:00:00 24,9 8,4 5 3 18 10 ESE 1021,2 0,0
19.06.2018 09:00:00 23,2 9,6 3 2 7 4 E 1020,9 0,0
19.06.2018 08:00:00 20,3 9,6 1 1 5 3 ESE 1021,4 -
19.06.2018 07:00:00 18,0 10,2 0 0 5 3 WSW 1021,9 0,0
19.06.2018 06:00:00 18,4 10,3 1 1 5 3 WNW 1021,1 0,0
19.06.2018 05:00:00 18,4 11,0 3 1 5 3 WNW 1020,8 0,0
19.06.2018 04:00:00 18,5 11,3 1 1 6 3 W 1020,8 0,0
19.06.2018 03:00:00 19,9 12,4 2 1 5 3 NE 1020,7 0,0
19.06.2018 02:00:00 20,0 12,5 1 1 4 2 ENE 1020,6 -
19.06.2018 01:00:00 20,5 13,0 2 1 5 3 WSW 1020,4 0,0
19.06.2018 00:00:00 20,9 12,8 2 1 5 3 W 1020,3 0,0
18.06.2018 23:00:00 21,1 12,7 5 3 8 4 W 1020,0 0,0
18.06.2018 22:00:00 21,1 12,2 4 2 19 10 SW 1019,4 0,0
18.06.2018 21:00:00 22,3 9,4 13 7 24 13 SSW 1019,1 0,0
18.06.2018 20:00:00 24,4 8,8 17 9 26 14 SW 1018,0 -
18.06.2018 19:00:00 26,0 8,9 11 6 25 13 S 1017,2 0,0
18.06.2018 18:00:00 28,0 8,8 5 3 28 15 SE 1017,0 0,0
18.06.2018 17:00:00 26,6 8,1 16 8 32 17 SSW 1017,4 0,0
18.06.2018 16:00:00 27,3 8,7 18 10 33 18 SSW 1017,8 0,0
18.06.2018 15:00:00 27,4 7,8 19 10 31 17 SSW 1018,1 0,0
18.06.2018 14:00:00 27,8 8,1 16 9 30 16 SSW 1018,6 -
18.06.2018 13:00:00 28,1 8,4 14 8 23 13 SSW 1018,8 0,0
18.06.2018 12:00:00 27,7 7,0 7 4 19 10 S 1019,7 0,0
18.06.2018 11:00:00 26,3 7,3 4 2 11 6 SW 1019,7 0,0
18.06.2018 10:00:00 27,2 8,7 2 1 8 4 ESE 1019,4 0,0
18.06.2018 09:00:00 22,9 7,4 2 1 6 3 SSW 1019,7 0,0
18.06.2018 08:00:00 20,6 7,6 0 0 6 3 WSW 1020,5 -
18.06.2018 07:00:00 18,2 6,4 0 0 3 2 N 1020,7 0,0
18.06.2018 06:00:00 18,2 6,4 2 1 4 2 W 1020,4 0,0
18.06.2018 05:00:00 18,5 5,9 0 0 8 5 NE 1020,2 0,0
18.06.2018 04:00:00 19,4 6,1 3 1 11 6 ENE 1019,9 0,0
18.06.2018 03:00:00 19,9 7,0 0 0 4 2 NW 1020,1 0,0
18.06.2018 02:00:00 20,3 6,2 0 0 7 4 SW 1020,0 -
18.06.2018 01:00:00 21,3 6,4 3 1 7 4 ENE 1020,2 0,0
18.06.2018 00:00:00 21,8 7,6 2 1 5 3 S 1020,2 0,0
17.06.2018 23:00:00 22,2 7,1 4 2 10 5 SW 1019,9 0,0
17.06.2018 22:00:00 23,0 6,2 5 3 13 7 SSW 1019,5 0,0
17.06.2018 21:00:00 24,2 5,9 7 4 19 10 SSW 1019,0 0,0
17.06.2018 20:00:00 24,9 5,6 13 7 21 11 SSW 1018,6 -
17.06.2018 19:00:00 25,9 5,5 13 7 25 13 SSW 1018,2 0,0
17.06.2018 18:00:00 26,4 5,9 14 8 35 19 SSW 1017,9 0,0
17.06.2018 17:00:00 26,6 5,5 17 9 34 18 SSW 1017,8 0,0
17.06.2018 16:00:00 26,2 4,6 20 11 36 19 SSW 1017,9 0,0
17.06.2018 15:00:00 27,0 5,8 18 10 31 17 SW 1017,7 0,0
17.06.2018 14:00:00 27,4 3,0 16 9 30 16 SSW 1018,0 -
17.06.2018 13:00:00 28,4 1,7 11 6 29 15 SSW 1017,6 0,0
17.06.2018 12:00:00 28,4 1,7 6 3 18 10 SSE 1018,0 0,0
17.06.2018 11:00:00 27,8 3,4 6 3 16 9 SE 1017,6 0,0
17.06.2018 10:00:00 25,4 4,5 5 3 12 6 ESE 1018,0 0,0
17.06.2018 09:00:00 24,4 5,1 0 0 3 2 ESE 1017,7 0,0
17.06.2018 08:00:00 20,0 4,8 0 0 5 3 SSW 1018,3 -
17.06.2018 07:00:00 17,3 3,6 1 1 6 4 WNW 1018,6 0,0
17.06.2018 06:00:00 18,2 3,2 1 1 9 5 NE 1018,3 0,0
17.06.2018 05:00:00 18,6 3,6 4 2 8 5 NW 1018,0 0,0
17.06.2018 04:00:00 18,4 3,8 3 2 7 4 NW 1017,8 0,0
17.06.2018 03:00:00 19,5 5,5 4 2 10 6 ENE 1017,4 0,0
17.06.2018 02:00:00 19,6 6,7 1 1 4 2 ESE 1017,3 -
17.06.2018 01:00:00 19,7 8,1 2 1 5 3 W 1017,0 0,0
17.06.2018 00:00:00 20,5 8,8 4 2 11 6 WSW 1016,7 0,0
16.06.2018 23:00:00 21,5 7,0 7 4 11 6 SW 1016,3 0,0
16.06.2018 22:00:00 22,5 5,0 4 2 11 6 SW 1015,2 0,0
16.06.2018 21:00:00 23,8 3,6 8 4 18 10 SW 1014,2 0,0
16.06.2018 20:00:00 25,1 3,6 10 5 26 14 SW 1013,6 -
16.06.2018 19:00:00 25,5 3,4 15 8 26 14 SSW 1013,3 0,0
16.06.2018 18:00:00 26,7 2,5 14 7 26 14 SSW 1013,0 0,0
16.06.2018 17:00:00 27,9 2,1 16 8 27 15 SSW 1013,0 0,0
16.06.2018 16:00:00 28,2 0,9 17 9 32 17 SSW 1013,2 0,0
16.06.2018 15:00:00 28,0 1,5 18 10 29 15 SSW 1013,2 0,0

tt = temperature
td = dewpoint
ff = wind speed
fx = gusts
dd = wind direction
ppp = reduced air pressure
rr = precipitation

Next stations